Time;durP1;ratioP1;P1;durP2;ratioP2;P2;SDS_P1;SDS_P2;PMS_P1;PMS_P2;Temp;Humidity;BMP_temperature;BMP_pressure;BME280_temperature;BME280_humidity;BME280_pressure;Samples;Min_cycle;Max_cycle;Signal;HPM_P1;HPM_P2
2022/07/02 00:00:42;;;;;;;2.97;0.60;;;26.20;47.90;;;;;;4916699;29;20091;-48
2022/07/02 00:03:10;;;;;;;2.05;0.40;;;26.20;47.60;;;;;;4916974;29;20096;-48
2022/07/02 00:05:55;;;;;;;2.67;0.47;;;26.20;47.90;;;;;;4917249;29;20312;-48
2022/07/02 00:08:24;;;;;;;2.65;0.70;;;26.20;47.80;;;;;;4917922;29;20067;-48
2022/07/02 00:10:51;;;;;;;1.23;0.30;;;26.20;47.70;;;;;;4917357;29;20027;-47
2022/07/02 00:13:17;;;;;;;1.40;0.35;;;26.20;47.60;;;;;;4915426;29;20095;-48
2022/07/02 00:15:44;;;;;;;1.33;0.40;;;26.20;47.30;;;;;;4916487;29;20035;-48
2022/07/02 00:18:10;;;;;;;3.42;0.60;;;26.20;47.60;;;;;;4917145;29;20031;-48
2022/07/02 00:20:37;;;;;;;3.97;0.73;;;26.30;47.20;;;;;;4917934;29;20039;-47
2022/07/02 00:23:03;;;;;;;2.58;0.40;;;26.30;47.30;;;;;;4916793;29;20016;-48
2022/07/02 00:25:41;;;;;;;1.33;0.47;;;26.30;47.30;;;;;;4916799;29;20074;-49
2022/07/02 00:28:10;;;;;;;2.13;0.63;;;26.30;47.00;;;;;;4916636;29;20500;-49
2022/07/02 00:30:37;;;;;;;3.65;0.70;;;26.30;46.90;;;;;;4916354;29;20043;-49
2022/07/02 00:33:03;;;;;;;0.95;0.50;;;26.30;47.00;;;;;;4916540;29;20131;-49
2022/07/02 00:35:29;;;;;;;2.45;0.60;;;26.30;47.00;;;;;;4918336;29;20717;-49
2022/07/02 00:37:56;;;;;;;0.93;0.50;;;26.30;47.00;;;;;;4915160;29;20031;-49
2022/07/02 00:40:24;;;;;;;3.25;0.70;;;26.40;46.90;;;;;;4915797;29;20028;-49
2022/07/02 00:42:50;;;;;;;0.50;0.30;;;26.40;46.70;;;;;;4917056;29;20024;-49
2022/07/02 00:45:18;;;;;;;1.20;0.40;;;26.30;46.70;;;;;;4916031;29;20041;-49
2022/07/02 00:47:43;;;;;;;0.50;0.30;;;26.40;46.60;;;;;;4916314;29;20071;-49
2022/07/02 00:50:10;;;;;;;0.65;0.30;;;26.40;47.30;;;;;;4917733;29;20710;-49
2022/07/02 00:52:35;;;;;;;0.88;0.40;;;26.40;46.50;;;;;;4915734;29;20058;-48
2022/07/02 00:55:01;;;;;;;1.60;0.60;;;26.40;46.60;;;;;;4915929;29;20485;-49
2022/07/02 00:57:27;;;;;;;0.70;0.45;;;26.40;46.50;;;;;;4915973;29;20456;-49
2022/07/02 00:59:53;;;;;;;0.85;0.40;;;26.40;46.50;;;;;;4917804;29;20039;-48
2022/07/02 01:02:22;;;;;;;0.73;0.30;;;26.40;46.30;;;;;;4917390;29;20032;-49
2022/07/02 01:04:49;;;;;;;1.20;0.50;;;26.40;46.40;;;;;;4920509;29;20028;-49
2022/07/02 01:07:16;;;;;;;1.10;0.30;;;26.40;46.40;;;;;;4918324;29;20038;-50
2022/07/02 01:12:33;;;;;;;0.75;0.32;;;26.40;46.40;;;;;;4916413;29;20083;-49
2022/07/02 01:14:59;;;;;;;4.18;0.65;;;26.40;46.20;;;;;;4915763;29;20028;-49
2022/07/02 01:17:25;;;;;;;1.10;0.40;;;26.40;46.10;;;;;;4915813;29;20034;-48
2022/07/02 01:19:51;;;;;;;1.85;0.40;;;26.40;46.10;;;;;;4917310;29;20020;-48
2022/07/02 01:22:22;;;;;;;0.50;0.30;;;26.40;46.10;;;;;;4915740;29;20039;-49
2022/07/02 01:24:54;;;;;;;0.77;0.40;;;26.40;46.10;;;;;;4915503;29;20024;-49
2022/07/02 01:27:22;;;;;;;1.93;0.40;;;26.50;45.90;;;;;;4915711;29;20031;-48
2022/07/02 01:29:48;;;;;;;0.80;0.30;;;26.40;45.80;;;;;;4912963;29;20083;-49
2022/07/02 01:32:14;;;;;;;0.22;0.20;;;26.40;45.80;;;;;;4916122;29;20032;-49
2022/07/02 01:34:43;;;;;;;1.02;0.40;;;26.50;45.90;;;;;;4914956;29;20762;-50
2022/07/02 01:37:14;;;;;;;4.97;0.82;;;26.50;45.90;;;;;;4916502;29;20714;-50
2022/07/02 01:39:41;;;;;;;3.00;0.70;;;26.50;45.90;;;;;;4914594;29;20083;-49
2022/07/02 01:42:07;;;;;;;2.03;0.50;;;26.50;45.70;;;;;;4915223;29;20036;-49
2022/07/02 01:44:34;;;;;;;1.65;0.30;;;26.50;45.70;;;;;;4915467;29;20044;-49
2022/07/02 01:47:05;;;;;;;0.75;0.43;;;26.40;45.60;;;;;;4914958;29;20024;-49
2022/07/02 01:49:31;;;;;;;0.93;0.60;;;26.40;45.60;;;;;;4915783;29;20512;-49
2022/07/02 01:51:57;;;;;;;1.02;0.50;;;26.40;45.50;;;;;;4916825;29;20079;-50
2022/07/02 01:54:23;;;;;;;0.98;0.50;;;26.40;45.40;;;;;;4915726;29;20119;-51
2022/07/02 01:56:49;;;;;;;2.80;0.47;;;26.50;45.50;;;;;;4916767;29;20218;-50
2022/07/02 01:59:16;;;;;;;1.13;0.60;;;26.40;45.50;;;;;;4917093;29;20051;-49
2022/07/02 02:01:43;;;;;;;1.23;0.50;;;26.50;45.30;;;;;;4914984;29;20047;-50
2022/07/02 02:04:09;;;;;;;1.17;0.63;;;26.50;45.30;;;;;;4915849;29;20028;-50
2022/07/02 02:06:35;;;;;;;0.98;0.60;;;26.40;45.20;;;;;;4915985;29;20036;-49
2022/07/02 02:09:01;;;;;;;0.52;0.30;;;26.50;45.30;;;;;;4914839;29;20036;-50
2022/07/02 02:11:27;;;;;;;0.85;0.45;;;26.40;45.20;;;;;;4914927;29;20027;-49
2022/07/02 02:13:53;;;;;;;0.60;0.40;;;26.40;45.20;;;;;;4915530;29;20510;-50
2022/07/02 02:16:18;;;;;;;1.35;0.50;;;26.50;45.10;;;;;;4915617;29;20042;-50
2022/07/02 02:18:44;;;;;;;1.30;0.65;;;26.50;45.00;;;;;;4915575;29;20043;-49
2022/07/02 02:21:10;;;;;;;0.65;0.30;;;26.40;45.20;;;;;;4915363;29;20059;-49
2022/07/02 02:23:36;;;;;;;1.17;0.50;;;26.40;45.30;;;;;;4916152;29;20024;-49
2022/07/02 02:26:05;;;;;;;1.05;0.47;;;26.40;45.20;;;;;;4915168;29;20024;-49
2022/07/02 02:28:31;;;;;;;6.72;0.95;;;26.40;45.00;;;;;;4915109;29;20028;-50
2022/07/02 02:30:56;;;;;;;2.50;0.55;;;26.50;45.10;;;;;;4914981;29;20099;-50
2022/07/02 02:33:22;;;;;;;1.30;0.60;;;26.40;45.10;;;;;;4915481;29;20029;-50
2022/07/02 02:35:48;;;;;;;1.08;0.47;;;26.40;45.10;;;;;;4916474;29;20073;-49
2022/07/02 02:38:14;;;;;;;0.70;0.40;;;26.40;45.20;;;;;;4914635;29;20119;-49
2022/07/02 02:40:39;;;;;;;1.38;0.70;;;26.40;45.10;;;;;;4915000;29;20016;-49
2022/07/02 02:43:05;;;;;;;1.33;0.60;;;26.40;45.10;;;;;;4915735;29;20020;-49
2022/07/02 02:45:31;;;;;;;0.80;0.50;;;26.40;45.00;;;;;;4914400;29;20036;-50
2022/07/02 02:47:57;;;;;;;0.73;0.40;;;26.40;45.00;;;;;;4915149;29;20059;-49
2022/07/02 02:50:22;;;;;;;0.98;0.60;;;26.40;44.90;;;;;;4916369;29;20055;-49
2022/07/02 02:52:48;;;;;;;1.23;0.60;;;26.40;44.80;;;;;;4916728;29;20035;-49
2022/07/02 02:58:05;;;;;;;1.80;0.60;;;26.40;44.70;;;;;;4918367;29;20098;-49
2022/07/02 03:00:31;;;;;;;1.85;0.70;;;26.40;44.80;;;;;;4918737;29;20057;-50
2022/07/02 03:02:57;;;;;;;1.77;0.63;;;26.40;44.80;;;;;;4918799;29;20023;-50
2022/07/02 03:05:22;;;;;;;1.48;0.50;;;26.40;44.70;;;;;;4918678;29;20033;-49
2022/07/02 03:07:48;;;;;;;3.15;0.60;;;26.40;44.70;;;;;;4918016;29;20040;-50
2022/07/02 03:10:14;;;;;;;2.35;1.25;;;26.40;44.70;;;;;;4918340;29;20396;-49
2022/07/02 03:12:40;;;;;;;2.30;0.60;;;26.40;44.80;;;;;;4918307;29;20058;-48
2022/07/02 03:15:06;;;;;;;5.68;1.15;;;26.40;44.80;;;;;;4918566;29;20043;-48
2022/07/02 03:17:32;;;;;;;3.65;1.15;;;26.40;44.70;;;;;;4918155;29;20105;-47
2022/07/02 03:19:58;;;;;;;6.53;0.80;;;26.40;44.80;;;;;;4918076;29;20665;-47
2022/07/02 03:22:24;;;;;;;0.85;0.32;;;26.40;44.70;;;;;;4919421;29;20099;-50
2022/07/02 03:24:49;;;;;;;1.67;0.57;;;26.40;44.70;;;;;;4919313;29;20043;-49
2022/07/02 03:27:15;;;;;;;4.07;0.63;;;26.40;44.60;;;;;;4917777;29;20086;-49
2022/07/02 03:29:42;;;;;;;2.30;0.60;;;26.40;44.60;;;;;;4917841;29;20435;-49
2022/07/02 03:32:07;;;;;;;1.65;0.60;;;26.40;44.70;;;;;;4917645;29;20016;-50
2022/07/02 03:34:33;;;;;;;0.82;0.52;;;26.40;44.60;;;;;;4918465;29;20017;-49
2022/07/02 03:36:59;;;;;;;1.27;0.60;;;26.40;44.60;;;;;;4919323;29;20025;-49
2022/07/02 03:39:25;;;;;;;1.20;0.68;;;26.40;44.50;;;;;;4917377;29;20025;-53
2022/07/02 03:41:50;;;;;;;0.85;0.47;;;26.40;44.40;;;;;;4917501;29;20095;-49
2022/07/02 03:44:17;;;;;;;1.98;0.70;;;26.40;44.50;;;;;;4917106;29;20034;-50
2022/07/02 03:46:42;;;;;;;1.20;0.60;;;26.40;44.40;;;;;;4916812;29;20059;-50
2022/07/02 03:49:08;;;;;;;0.68;0.50;;;26.40;44.40;;;;;;4916930;29;20717;-49
2022/07/02 03:51:34;;;;;;;1.67;0.50;;;26.40;44.40;;;;;;4918870;29;20106;-49
2022/07/02 03:54:00;;;;;;;3.67;1.00;;;26.40;44.40;;;;;;4917879;29;20661;-49
2022/07/02 03:56:26;;;;;;;1.88;0.65;;;26.40;44.40;;;;;;4917046;29;20132;-50
2022/07/02 03:58:51;;;;;;;1.35;0.60;;;26.40;44.40;;;;;;4917290;29;20131;-49
2022/07/02 04:01:17;;;;;;;1.48;0.52;;;26.40;44.40;;;;;;4917149;29;20539;-49
2022/07/02 04:03:43;;;;;;;1.92;0.60;;;26.40;44.50;;;;;;4917012;29;20040;-47
2022/07/02 04:06:08;;;;;;;6.28;0.70;;;26.40;44.40;;;;;;4917157;29;20103;-49
2022/07/02 04:08:34;;;;;;;1.83;0.70;;;26.40;44.40;;;;;;4916544;29;20078;-48
2022/07/02 04:11:00;;;;;;;2.40;0.60;;;26.40;44.30;;;;;;4916752;29;20056;-49
2022/07/02 04:13:26;;;;;;;1.20;0.52;;;26.40;44.40;;;;;;4917250;29;20043;-51
2022/07/02 04:15:51;;;;;;;0.95;0.50;;;26.40;44.30;;;;;;4916821;29;20032;-50
2022/07/02 04:18:18;;;;;;;1.73;0.70;;;26.40;44.30;;;;;;4916776;29;20055;-49
2022/07/02 04:20:44;;;;;;;1.17;0.65;;;26.40;45.00;;;;;;4918362;29;20036;-49
2022/07/02 04:23:10;;;;;;;1.95;0.95;;;26.40;44.30;;;;;;4916798;29;20633;-48
2022/07/02 04:25:37;;;;;;;1.67;0.75;;;26.40;44.10;;;;;;4916760;29;20030;-49
2022/07/02 04:28:03;;;;;;;1.42;0.70;;;26.40;44.10;;;;;;4916500;29;20705;-49
2022/07/02 04:30:29;;;;;;;1.83;0.75;;;26.40;44.10;;;;;;4916193;29;20036;-49
2022/07/02 04:32:55;;;;;;;1.20;0.68;;;26.40;44.20;;;;;;4916669;29;20068;-49
2022/07/02 04:35:20;;;;;;;1.35;0.70;;;26.40;44.10;;;;;;4917441;29;20394;-49
2022/07/02 04:37:46;;;;;;;1.70;0.80;;;26.40;44.10;;;;;;4916193;29;20681;-49
2022/07/02 04:40:12;;;;;;;1.33;0.70;;;26.40;43.90;;;;;;4918615;29;20039;-47
2022/07/02 04:42:38;;;;;;;1.95;0.70;;;26.40;43.90;;;;;;4921839;29;20163;-49
2022/07/02 04:45:05;;;;;;;1.63;0.73;;;26.40;43.90;;;;;;4920210;29;20020;-51
2022/07/02 04:47:30;;;;;;;1.33;0.70;;;26.40;44.10;;;;;;4917496;29;20024;-50
2022/07/02 04:49:56;;;;;;;1.08;0.60;;;26.40;44.00;;;;;;4916357;29;20630;-49
2022/07/02 04:52:22;;;;;;;1.88;0.60;;;26.40;44.10;;;;;;4917396;29;20028;-48
2022/07/02 04:54:47;;;;;;;2.05;0.70;;;26.40;44.10;;;;;;4916284;29;20020;-48
2022/07/02 04:57:13;;;;;;;1.23;0.60;;;26.40;44.10;;;;;;4915843;29;20042;-47
2022/07/02 04:59:39;;;;;;;1.33;0.60;;;26.40;44.00;;;;;;4916501;29;20444;-48
2022/07/02 05:02:05;;;;;;;2.13;0.77;;;26.40;44.00;;;;;;4915821;29;20083;-47
2022/07/02 05:04:31;;;;;;;1.50;0.63;;;26.40;44.00;;;;;;4916216;29;20027;-48
2022/07/02 05:06:57;;;;;;;1.02;0.68;;;26.40;43.90;;;;;;4917054;29;20439;-48
2022/07/02 05:09:23;;;;;;;1.27;0.52;;;26.40;43.90;;;;;;4915942;29;20040;-48
2022/07/02 05:11:49;;;;;;;2.05;0.88;;;26.40;44.10;;;;;;4915676;29;20027;-47
2022/07/02 05:14:15;;;;;;;1.08;0.70;;;26.40;43.90;;;;;;4915802;29;20527;-48
2022/07/02 05:16:40;;;;;;;1.25;0.70;;;26.40;43.70;;;;;;4915048;29;20043;-47
2022/07/02 05:19:06;;;;;;;1.63;0.75;;;26.40;43.70;;;;;;4914855;29;20820;-47
2022/07/02 05:21:32;;;;;;;1.58;0.65;;;26.40;43.50;;;;;;4916822;29;20104;-47
2022/07/02 05:23:58;;;;;;;1.52;0.70;;;26.40;43.50;;;;;;4915706;29;20078;-47
2022/07/02 05:26:24;;;;;;;1.92;0.70;;;26.40;43.50;;;;;;4915913;29;20098;-47
2022/07/02 05:28:50;;;;;;;1.30;0.63;;;26.30;43.50;;;;;;4915357;29;20728;-47
2022/07/02 05:31:16;;;;;;;1.55;0.82;;;26.30;43.50;;;;;;4915491;29;20024;-47
2022/07/02 05:33:42;;;;;;;1.00;0.60;;;26.30;43.40;;;;;;4915408;29;20178;-47
2022/07/02 05:36:07;;;;;;;1.05;0.60;;;26.30;43.40;;;;;;4916078;29;20032;-48
2022/07/02 05:38:33;;;;;;;3.33;0.90;;;26.30;43.40;;;;;;4915424;29;20024;-47
2022/07/02 05:40:59;;;;;;;1.75;0.60;;;26.30;43.30;;;;;;4913554;29;20038;-48
2022/07/02 05:43:24;;;;;;;0.73;0.40;;;26.30;43.40;;;;;;4917451;29;20039;-48
2022/07/02 05:45:50;;;;;;;1.92;0.50;;;26.20;43.30;;;;;;4921234;29;20028;-47
2022/07/02 05:48:16;;;;;;;1.30;0.57;;;26.20;43.40;;;;;;4921878;29;20027;-47
2022/07/02 05:50:42;;;;;;;1.10;0.47;;;26.20;43.30;;;;;;4920666;29;20549;-48
2022/07/02 05:53:08;;;;;;;0.98;0.40;;;26.20;43.30;;;;;;4920508;29;20040;-46
2022/07/02 05:55:33;;;;;;;0.98;0.40;;;26.20;43.40;;;;;;4922044;29;20028;-48
2022/07/02 05:57:59;;;;;;;1.10;0.55;;;26.20;43.40;;;;;;4919007;29;20033;-48
2022/07/02 06:00:25;;;;;;;1.60;0.50;;;26.20;43.50;;;;;;4918055;29;20655;-48
2022/07/02 06:02:50;;;;;;;2.38;0.55;;;26.10;43.50;;;;;;4924097;29;20408;-46
2022/07/02 06:08:01;;;;;;;1.50;0.52;;;26.00;42.60;;;;;;4923806;29;20209;-47
2022/07/02 06:10:27;;;;;;;1.58;0.63;;;25.80;42.10;;;;;;4924061;29;20063;-47
2022/07/02 06:12:53;;;;;;;1.00;0.52;;;25.60;43.00;;;;;;4924841;29;20035;-47
2022/07/02 06:15:19;;;;;;;1.92;0.60;;;25.50;43.40;;;;;;4923972;29;20118;-49
2022/07/02 06:17:46;;;;;;;1.05;0.50;;;25.30;43.10;;;;;;4924873;29;20600;-47
2022/07/02 06:20:14;;;;;;;1.40;0.60;;;25.10;43.60;;;;;;4923943;29;20032;-48
2022/07/02 06:22:40;;;;;;;1.58;0.43;;;24.80;44.20;;;;;;4924430;29;20036;-48
2022/07/02 06:25:07;;;;;;;0.93;0.50;;;24.70;44.70;;;;;;4916300;29;20063;-47
2022/07/02 06:27:34;;;;;;;0.95;0.43;;;24.60;44.80;;;;;;4917240;29;20020;-47
2022/07/02 06:30:06;;;;;;;2.60;0.65;;;24.50;45.50;;;;;;4918685;29;20078;-48
2022/07/02 06:32:32;;;;;;;3.72;0.70;;;24.50;45.80;;;;;;4917861;29;20567;-48
2022/07/02 06:34:58;;;;;;;2.53;0.90;;;24.50;46.30;;;;;;4918431;29;20157;-47
2022/07/02 06:37:25;;;;;;;1.67;0.60;;;24.50;45.60;;;;;;4920248;29;20035;-47
2022/07/02 06:39:51;;;;;;;1.52;0.80;;;24.40;45.70;;;;;;4918759;29;20027;-45
2022/07/02 06:42:22;;;;;;;1.63;0.70;;;24.30;45.80;;;;;;4919058;29;20020;-44
2022/07/02 06:44:51;;;;;;;2.05;0.80;;;24.30;46.30;;;;;;4915008;29;20023;-44
2022/07/02 06:47:17;;;;;;;0.95;0.50;;;24.20;46.10;;;;;;4920998;29;20024;-43
2022/07/02 06:49:43;;;;;;;2.03;0.70;;;24.20;47.00;;;;;;4928607;29;20554;-44
2022/07/02 06:52:09;;;;;;;1.20;0.70;;;24.20;46.80;;;;;;4927859;29;20476;-48
2022/07/02 06:54:35;;;;;;;2.65;0.95;;;24.20;46.70;;;;;;4927633;29;20094;-49
2022/07/02 06:57:02;;;;;;;1.00;0.68;;;24.20;46.60;;;;;;4928275;29;20038;-47
2022/07/02 06:59:27;;;;;;;1.55;0.70;;;24.10;45.90;;;;;;4926024;29;20051;-47
2022/07/02 07:01:53;;;;;;;1.02;0.60;;;24.00;46.40;;;;;;4927595;29;20078;-46
2022/07/02 07:04:19;;;;;;;1.20;0.50;;;24.00;47.00;;;;;;4927338;29;20032;-47
2022/07/02 07:06:51;;;;;;;2.60;0.70;;;23.90;47.10;;;;;;4927252;29;20114;-47
2022/07/02 07:09:18;;;;;;;2.72;0.63;;;23.90;47.40;;;;;;4927479;29;20035;-47
2022/07/02 07:11:43;;;;;;;1.10;0.60;;;24.00;47.50;;;;;;4927543;29;20559;-47
2022/07/02 07:14:09;;;;;;;1.48;0.70;;;24.00;47.60;;;;;;4927696;29;20123;-49
2022/07/02 07:16:35;;;;;;;1.67;0.80;;;24.10;47.70;;;;;;4927341;29;20581;-48
2022/07/02 07:19:04;;;;;;;1.00;0.60;;;24.10;47.20;;;;;;4926923;29;20119;-47
2022/07/02 07:21:33;;;;;;;1.10;0.60;;;24.10;47.40;;;;;;4923824;29;20023;-47
2022/07/02 07:23:59;;;;;;;2.72;0.90;;;24.10;47.50;;;;;;4914761;29;20020;-46
2022/07/02 07:26:25;;;;;;;2.30;0.85;;;24.00;47.00;;;;;;4917173;29;20030;-47
2022/07/02 07:28:51;;;;;;;2.50;0.98;;;24.00;47.10;;;;;;4920157;29;20042;-47
2022/07/02 07:31:20;;;;;;;1.60;0.68;;;24.00;47.40;;;;;;4926740;29;20032;-51
2022/07/02 07:33:54;;;;;;;2.00;0.90;;;23.90;47.70;;;;;;4927386;29;20036;-46
2022/07/02 07:36:20;;;;;;;1.05;0.60;;;23.90;47.40;;;;;;4927177;29;20039;-47
2022/07/02 07:38:48;;;;;;;1.38;0.70;;;23.90;47.80;;;;;;4924837;29;20112;-47
2022/07/02 07:41:14;;;;;;;1.40;0.80;;;24.00;47.60;;;;;;4923168;29;20036;-47
2022/07/02 07:43:40;;;;;;;1.65;0.90;;;24.00;47.10;;;;;;4919187;29;20063;-48
2022/07/02 07:46:06;;;;;;;3.17;1.00;;;23.90;47.00;;;;;;4917138;29;20090;-48
2022/07/02 07:48:32;;;;;;;1.70;0.80;;;23.90;46.60;;;;;;4915986;29;20555;-48
2022/07/02 07:50:59;;;;;;;2.65;0.65;;;23.80;47.70;;;;;;4916935;29;20920;-47
2022/07/02 07:53:25;;;;;;;3.13;0.80;;;23.90;47.70;;;;;;4919054;29;20532;-47
2022/07/02 07:55:51;;;;;;;2.42;1.10;;;23.90;47.60;;;;;;4913619;29;20084;-48
2022/07/02 07:58:17;;;;;;;0.73;0.50;;;24.00;47.70;;;;;;4913627;29;20036;-48
2022/07/02 08:00:44;;;;;;;1.20;0.50;;;24.00;47.30;;;;;;4917799;29;20051;-47
2022/07/02 08:03:10;;;;;;;1.02;0.60;;;24.00;46.80;;;;;;4915909;29;20026;-48
2022/07/02 08:05:36;;;;;;;1.30;0.68;;;24.00;46.70;;;;;;4918325;29;20559;-48
2022/07/02 08:08:02;;;;;;;1.60;0.88;;;24.00;47.80;;;;;;4916204;29;20551;-48
2022/07/02 08:10:28;;;;;;;1.98;0.60;;;24.10;48.30;;;;;;4916513;29;20496;-48
2022/07/02 08:12:54;;;;;;;1.95;0.65;;;24.10;48.50;;;;;;4915428;29;20055;-48
2022/07/02 08:15:20;;;;;;;1.42;0.60;;;24.20;48.30;;;;;;4916603;29;20032;-48
2022/07/02 08:17:46;;;;;;;1.45;0.60;;;24.20;48.20;;;;;;4918416;29;20102;-46
2022/07/02 08:20:12;;;;;;;1.45;0.70;;;24.30;48.10;;;;;;4917550;29;20029;-46
2022/07/02 08:22:38;;;;;;;0.95;0.60;;;24.30;48.00;;;;;;4915126;29;20024;-47
2022/07/02 08:25:06;;;;;;;1.10;0.57;;;24.40;47.90;;;;;;4916627;29;20024;-46
2022/07/02 08:27:32;;;;;;;1.15;0.60;;;24.40;47.70;;;;;;4916657;29;20032;-46
2022/07/02 08:29:58;;;;;;;2.22;0.70;;;24.50;47.90;;;;;;4916593;29;20625;-46
2022/07/02 08:32:25;;;;;;;1.65;0.70;;;24.50;47.60;;;;;;4916243;29;20078;-46
2022/07/02 08:34:51;;;;;;;1.35;0.60;;;24.60;47.60;;;;;;4917682;29;20036;-46
2022/07/02 08:37:17;;;;;;;1.65;0.70;;;24.60;47.70;;;;;;4916396;29;20034;-46
2022/07/02 08:39:42;;;;;;;4.95;0.80;;;24.70;47.80;;;;;;4916182;29;20038;-47
2022/07/02 08:42:28;;;;;;;2.17;0.98;;;24.70;47.60;;;;;;4908970;29;20058;-48
2022/07/02 08:44:59;;;;;;;1.05;0.57;;;24.70;47.60;;;;;;4906979;29;20028;-47
2022/07/02 08:47:26;;;;;;;0.95;0.45;;;24.80;47.50;;;;;;4912664;29;20641;-47
2022/07/02 08:49:54;;;;;;;0.75;0.57;;;24.90;47.50;;;;;;4915393;29;20027;-47
2022/07/02 08:52:21;;;;;;;1.42;0.70;;;24.90;47.40;;;;;;4916926;29;20080;-47
2022/07/02 08:54:48;;;;;;;1.02;0.60;;;24.90;47.50;;;;;;4915015;29;20028;-47
2022/07/02 08:57:15;;;;;;;1.20;0.55;;;25.00;47.40;;;;;;4915562;29;20149;-48
2022/07/02 08:59:41;;;;;;;1.90;0.60;;;25.00;47.40;;;;;;4915786;29;20114;-47
2022/07/02 09:02:10;;;;;;;0.98;0.55;;;25.00;47.40;;;;;;4916001;29;20074;-48
2022/07/02 09:04:41;;;;;;;1.40;0.68;;;25.00;47.40;;;;;;4915796;29;20024;-47
2022/07/02 09:07:07;;;;;;;2.22;0.50;;;25.10;47.20;;;;;;4919060;29;20858;-49
2022/07/02 09:09:33;;;;;;;1.23;0.60;;;25.10;47.10;;;;;;4922677;29;20118;-48
2022/07/02 09:11:59;;;;;;;1.27;0.60;;;25.10;47.10;;;;;;4924255;29;20766;-47
2022/07/02 09:14:25;;;;;;;1.15;0.60;;;25.10;47.00;;;;;;4927092;29;20039;-48
2022/07/02 09:16:51;;;;;;;1.40;0.60;;;25.20;47.10;;;;;;4924817;29;20058;-47
2022/07/02 09:19:18;;;;;;;1.23;0.68;;;25.20;46.90;;;;;;4924300;29;20027;-48
2022/07/02 09:21:48;;;;;;;1.83;0.70;;;25.20;47.00;;;;;;4926225;29;20027;-48
2022/07/02 09:24:14;;;;;;;0.93;0.57;;;25.30;46.80;;;;;;4918027;29;20029;-48
2022/07/02 09:26:40;;;;;;;1.77;0.47;;;25.30;46.60;;;;;;4925643;29;20476;-48
2022/07/02 09:29:06;;;;;;;1.00;0.50;;;25.30;46.70;;;;;;4925431;29;20034;-48
2022/07/02 09:31:46;;;;;;;1.45;0.63;;;25.30;46.70;;;;;;4925944;29;20027;-48
2022/07/02 09:34:23;;;;;;;1.73;0.68;;;25.40;46.50;;;;;;4925774;29;20035;-48
2022/07/02 09:36:49;;;;;;;1.73;0.93;;;25.40;46.60;;;;;;4925442;29;20035;-49
2022/07/02 09:39:25;;;;;;;0.75;0.45;;;25.40;46.60;;;;;;4925530;29;20040;-48
2022/07/02 09:41:51;;;;;;;1.27;0.80;;;25.40;46.50;;;;;;4925856;29;20031;-47
2022/07/02 09:44:16;;;;;;;3.28;0.60;;;25.40;46.50;;;;;;4926185;29;20028;-48
2022/07/02 09:46:43;;;;;;;1.63;0.70;;;25.40;46.40;;;;;;4926235;29;20059;-47
2022/07/02 09:49:11;;;;;;;1.17;0.57;;;25.40;46.40;;;;;;4926224;29;20854;-48
2022/07/02 09:51:50;;;;;;;1.55;0.70;;;25.50;46.40;;;;;;4925734;29;20032;-48
2022/07/02 09:54:21;;;;;;;1.58;0.63;;;25.50;46.40;;;;;;4912563;29;20047;-48
2022/07/02 09:56:58;;;;;;;2.72;0.63;;;25.50;46.80;;;;;;4917459;29;20058;-47
2022/07/02 09:59:24;;;;;;;1.70;0.70;;;25.50;47.10;;;;;;4914539;29;20745;-47
2022/07/02 10:01:50;;;;;;;3.08;0.80;;;25.50;47.70;;;;;;4918226;29;20047;-48
2022/07/02 10:04:27;;;;;;;2.63;0.93;;;25.50;48.30;;;;;;4910359;29;20681;-47
2022/07/02 10:06:53;;;;;;;1.67;0.60;;;25.60;48.00;;;;;;4918745;29;20444;-47
2022/07/02 10:09:22;;;;;;;1.58;0.80;;;25.60;47.60;;;;;;4921038;29;20036;-47
2022/07/02 10:11:48;;;;;;;2.35;0.70;;;25.60;47.50;;;;;;4922890;29;20035;-47
2022/07/02 10:14:19;;;;;;;1.73;0.80;;;25.60;47.40;;;;;;4929129;29;20122;-48
2022/07/02 10:16:46;;;;;;;1.30;0.52;;;25.70;47.40;;;;;;4928839;29;20032;-47
2022/07/02 10:19:12;;;;;;;1.48;0.52;;;25.70;47.30;;;;;;4928071;29;20056;-48
2022/07/02 10:21:39;;;;;;;1.45;0.63;;;25.70;47.10;;;;;;4928231;29;20032;-47
2022/07/02 10:24:06;;;;;;;1.98;0.57;;;25.70;47.40;;;;;;4926720;29;20024;-48
2022/07/02 10:26:32;;;;;;;1.30;0.60;;;25.70;47.30;;;;;;4929245;29;20705;-47
2022/07/02 10:29:02;;;;;;;1.85;0.80;;;25.70;47.20;;;;;;4928356;29;20118;-48
2022/07/02 10:31:32;;;;;;;2.20;0.80;;;25.70;47.10;;;;;;4923966;29;20024;-47
2022/07/02 10:34:22;;;;;;;2.65;0.90;;;25.70;46.70;;;;;;4927387;29;20122;-46
2022/07/02 10:36:48;;;;;;;1.52;0.70;;;25.70;47.20;;;;;;4921155;29;20167;-47
2022/07/02 10:39:16;;;;;;;2.35;0.65;;;25.80;47.40;;;;;;4923706;29;20036;-46
2022/07/02 10:41:43;;;;;;;3.03;0.88;;;25.80;47.50;;;;;;4918630;29;20040;-46
2022/07/02 10:44:09;;;;;;;1.42;0.70;;;25.80;47.30;;;;;;4926752;29;20163;-49
2022/07/02 10:46:36;;;;;;;1.55;0.80;;;25.80;46.80;;;;;;4927679;29;20115;-46
2022/07/02 10:49:04;;;;;;;1.60;0.70;;;25.80;47.30;;;;;;4927520;29;20536;-47
2022/07/02 10:51:34;;;;;;;1.83;0.60;;;25.90;48.10;;;;;;4928147;29;20036;-47
2022/07/02 10:54:02;;;;;;;2.05;0.77;;;25.90;47.90;;;;;;4927826;29;20055;-47
2022/07/02 10:56:29;;;;;;;1.60;0.77;;;25.90;47.90;;;;;;4928327;29;20036;-46
2022/07/02 10:58:55;;;;;;;2.03;0.60;;;25.90;47.90;;;;;;4925423;29;20046;-46
2022/07/02 11:01:22;;;;;;;3.55;1.20;;;25.90;48.00;;;;;;4927076;29;20035;-46
2022/07/02 11:04:03;;;;;;;1.23;0.77;;;26.00;49.70;;;;;;4927694;29;20032;-46
2022/07/02 11:06:30;;;;;;;0.95;0.70;;;26.00;48.20;;;;;;4928147;29;20098;-45
2022/07/02 11:09:02;;;;;;;2.75;1.10;;;26.00;48.60;;;;;;4925053;29;20549;-47
2022/07/02 11:11:35;;;;;;;2.83;1.45;;;26.00;49.20;;;;;;4920543;29;20036;-47
2022/07/02 11:14:07;;;;;;;2.40;1.35;;;26.10;49.60;;;;;;4922151;29;20090;-47
2022/07/02 11:16:44;;;;;;;2.42;1.23;;;26.10;49.20;;;;;;4926975;29;20030;-47
2022/07/02 11:19:28;;;;;;;2.20;0.90;;;26.10;49.30;;;;;;4926527;29;20090;-47
2022/07/02 11:21:59;;;;;;;1.60;0.73;;;26.10;48.90;;;;;;4924310;29;20027;-47
2022/07/02 11:24:26;;;;;;;1.88;0.82;;;26.10;48.80;;;;;;4926221;29;20083;-47
2022/07/02 11:26:52;;;;;;;1.50;0.75;;;26.10;48.40;;;;;;4925905;29;20153;-47
2022/07/02 11:29:19;;;;;;;1.42;0.70;;;26.20;48.00;;;;;;4926774;29;20085;-47
2022/07/02 11:31:47;;;;;;;1.90;0.65;;;26.20;47.90;;;;;;4927083;29;20059;-48
2022/07/02 11:34:30;;;;;;;1.48;0.73;;;26.20;47.90;;;;;;4927224;29;20047;-47
2022/07/02 11:36:56;;;;;;;1.85;0.75;;;26.20;47.60;;;;;;4926749;29;20054;-47
2022/07/02 11:39:24;;;;;;;1.23;0.68;;;26.20;47.60;;;;;;4926095;29;20109;-48
2022/07/02 11:41:51;;;;;;;1.13;0.60;;;26.20;47.60;;;;;;4927327;29;20032;-47
2022/07/02 11:44:26;;;;;;;1.75;0.80;;;26.20;47.50;;;;;;4927641;29;20032;-47
2022/07/02 11:46:54;;;;;;;2.03;0.85;;;26.20;47.20;;;;;;4927183;29;20028;-47
2022/07/02 11:49:23;;;;;;;1.10;0.50;;;26.20;47.30;;;;;;4933994;28;20035;-47
2022/07/02 11:51:51;;;;;;;1.52;0.63;;;26.30;47.50;;;;;;4940141;29;20528;-46
2022/07/02 11:54:17;;;;;;;1.67;0.75;;;26.30;47.50;;;;;;4916226;29;20043;-47
2022/07/02 11:56:44;;;;;;;1.45;0.70;;;26.30;47.10;;;;;;4927144;29;20106;-47
2022/07/02 11:59:12;;;;;;;1.05;0.60;;;26.30;47.80;;;;;;4916465;29;20029;-47
2022/07/02 12:01:41;;;;;;;1.58;0.68;;;26.30;48.20;;;;;;4908293;29;20048;-47
2022/07/02 12:04:10;;;;;;;1.20;0.60;;;26.30;48.00;;;;;;4911274;29;20036;-46
2022/07/02 12:06:42;;;;;;;1.17;0.63;;;26.30;47.90;;;;;;4936763;29;20028;-47
2022/07/02 12:09:10;;;;;;;0.80;0.50;;;26.40;47.50;;;;;;4926286;29;20583;-45
2022/07/02 12:11:38;;;;;;;1.90;0.80;;;26.40;46.70;;;;;;4925477;29;20048;-47
2022/07/02 12:14:06;;;;;;;1.30;0.70;;;26.40;46.10;;;;;;4925656;29;20046;-46
2022/07/02 12:16:33;;;;;;;1.23;0.60;;;26.40;47.30;;;;;;4922614;29;20107;-46
2022/07/02 12:19:10;;;;;;;1.58;0.60;;;26.50;47.90;;;;;;4926320;29;20030;-46
2022/07/02 12:21:42;;;;;;;1.30;0.60;;;26.40;48.50;;;;;;4926845;29;20032;-46
2022/07/02 12:24:37;;;;;;;0.97;0.50;;;26.50;48.60;;;;;;4926020;29;20127;-46
2022/07/02 12:27:08;;;;;;;2.00;0.60;;;26.50;47.90;;;;;;4913805;29;20418;-45
2022/07/02 12:29:58;;;;;;;2.33;0.85;;;26.60;48.50;;;;;;4926597;29;20068;-47
2022/07/02 12:32:30;;;;;;;1.33;0.68;;;26.60;46.40;;;;;;4926356;29;20094;-47
2022/07/02 12:34:57;;;;;;;0.88;0.55;;;26.60;45.80;;;;;;4926396;29;20636;-47
2022/07/02 12:37:25;;;;;;;2.17;0.82;;;26.60;44.90;;;;;;4926158;29;20115;-47
2022/07/02 12:40:12;;;;;;;1.67;0.60;;;26.60;45.00;;;;;;4925914;29;20028;-47
2022/07/02 12:42:48;;;;;;;1.75;0.70;;;26.60;43.70;;;;;;4911488;29;20054;-46
2022/07/02 12:45:22;;;;;;;1.85;0.80;;;26.70;43.80;;;;;;4917022;29;20122;-47
2022/07/02 12:48:19;;;;;;;1.17;0.50;;;26.70;47.40;;;;;;4912153;29;20028;-47
2022/07/02 12:50:51;;;;;;;1.98;0.60;;;26.70;47.10;;;;;;4924686;29;20464;-45
2022/07/02 12:53:20;;;;;;;1.75;0.70;;;26.70;47.00;;;;;;4925417;29;20114;-45
2022/07/02 12:55:51;;;;;;;1.35;0.50;;;26.80;45.00;;;;;;4924277;29;20106;-47
2022/07/02 12:58:17;;;;;;;1.13;0.63;;;26.80;45.60;;;;;;4924588;29;20038;-46